»·PEaware :: N102GH KMYF-KSEE

N102GH :: KMYF-KSEE

FLIGHT INFORMATION

Flight Status: Arrived
Operator: Privately registered:
United States
More flights under this callsign
Pilot: Ludovic V. (42180)
Aircraft: CESSNA 172 SKYHAWK
(C172)
More flights by this aircraft type
Origin: KMYF Montgomery
United States
Destination: KSEE Gillespie
United States
More flights between these airports :: More routes between these airports
Route: MZB
File this flight plan on PilotEdge
Remarks: LOC-D IAP FR BARET FX
Altitude:
(Current/Filed)
4,000ft
Speed:
(Current/Filed)
100kts
Departed: 11-Feb-24 09:53 PM
Arrived: 11-Feb-24 10:32 PM
Distance/Time
Traveled:
9nm/0:39
Distance/Time
To Go:
Arrived

Flight Plot

Page will automatically refresh every two minutes.


Map Options




Map Legend


Flown Route
Filed Route
Departure Airport
Arrival Airport
Navaid (VOR, NDB)
Fix

Horizontal Profiles

Position Reports

Time Latitude Longitude Heading Altitude Ground
Speed
11-Feb-24 21:31 32.813541 -117.145700 65 410ft 0kts
11-Feb-24 21:32 32.813541 -117.145700 65 410ft 0kts
11-Feb-24 21:33 32.813541 -117.145700 65 410ft 0kts
11-Feb-24 21:34 32.813541 -117.145700 65 410ft 0kts
11-Feb-24 21:35 32.813541 -117.145700 65 410ft 0kts
11-Feb-24 21:36 32.813541 -117.145700 65 410ft 0kts
11-Feb-24 21:37 32.813541 -117.145700 65 410ft 0kts
11-Feb-24 21:38 32.813541 -117.145700 65 410ft 0kts
11-Feb-24 21:39 32.813541 -117.145700 65 410ft 0kts
11-Feb-24 21:40 32.813541 -117.145700 65 410ft 0kts
11-Feb-24 21:41 32.813541 -117.145700 65 410ft 0kts
11-Feb-24 21:42 32.813541 -117.145700 65 410ft 0kts
11-Feb-24 21:43 32.813541 -117.145700 65 410ft 0kts
11-Feb-24 21:44 32.815005 -117.142951 71 415ft 20kts
11-Feb-24 21:45 32.812359 -117.135687 115 418ft 29kts
11-Feb-24 21:46 32.811634 -117.133985 294 417ft 28kts
11-Feb-24 21:47 32.812553 -117.135542 5 419ft 0kts
11-Feb-24 21:48 32.812553 -117.135542 5 419ft 0kts
11-Feb-24 21:49 32.812553 -117.135542 5 419ft 0kts
11-Feb-24 21:50 32.812553 -117.135542 5 419ft 0kts
11-Feb-24 21:51 32.812960 -117.135494 25 420ft 11kts
11-Feb-24 21:52 32.813619 -117.136973 296 420ft 47kts
11-Feb-24 21:53 32.818267 -117.158406 265 1247ft 68kts
11-Feb-24 21:54 32.822174 -117.180897 283 2092ft 70kts
11-Feb-24 21:55 32.825939 -117.204195 284 2909ft 73kts
11-Feb-24 21:56 32.831687 -117.228045 289 3701ft 75kts
11-Feb-24 21:57 32.842462 -117.250446 283 4426ft 80kts
11-Feb-24 21:58 32.850827 -117.279320 279 4318ft 86kts
11-Feb-24 21:59 32.831390 -117.286214 106 3864ft 102kts
11-Feb-24 22:00 32.832092 -117.256611 84 4363ft 81kts
11-Feb-24 22:01 32.832286 -117.228781 82 5079ft 83kts
11-Feb-24 22:02 32.831398 -117.200809 83 5724ft 89kts
11-Feb-24 22:03 32.831380 -117.171273 92 6138ft 92kts
11-Feb-24 22:04 32.824815 -117.137332 96 6001ft 116kts
11-Feb-24 22:05 32.818156 -117.099283 100 5827ft 113kts
11-Feb-24 22:06 32.811831 -117.062887 108 5795ft 109kts
11-Feb-24 22:07 32.800605 -117.029064 112 5825ft 110kts
11-Feb-24 22:08 32.788423 -116.996210 110 5912ft 107kts
11-Feb-24 22:09 32.778534 -116.962762 99 5935ft 108kts
11-Feb-24 22:10 32.769693 -116.928243 105 5952ft 112kts
11-Feb-24 22:11 32.758915 -116.893153 104 5905ft 111kts
11-Feb-24 22:12 32.749138 -116.857893 109 5866ft 111kts
11-Feb-24 22:13 32.737209 -116.823716 107 5864ft 112kts
11-Feb-24 22:14 32.726730 -116.789139 94 5855ft 112kts
11-Feb-24 22:15 32.721056 -116.753358 98 5870ft 110kts
11-Feb-24 22:16 32.715450 -116.717479 99 5844ft 110kts
11-Feb-24 22:17 32.708868 -116.681917 99 5858ft 110kts
11-Feb-24 22:18 32.729695 -116.664504 9 5833ft 108kts
11-Feb-24 22:19 32.758120 -116.656717 12 5990ft 99kts
11-Feb-24 22:20 32.772407 -116.676250 263 6011ft 106kts
11-Feb-24 22:21 32.781605 -116.709672 303 5603ft 113kts
11-Feb-24 22:22 32.785656 -116.745866 286 4940ft 106kts
11-Feb-24 22:23 32.792487 -116.780145 288 4772ft 108kts
11-Feb-24 22:24 32.800359 -116.812864 279 4256ft 81kts
11-Feb-24 22:25 32.802383 -116.840028 285 3573ft 83kts
11-Feb-24 22:26 32.810364 -116.865625 276 2803ft 84kts
11-Feb-24 22:27 32.812642 -116.891690 273 2895ft 77kts
11-Feb-24 22:28 32.815789 -116.917551 304 2446ft 76kts
11-Feb-24 22:29 32.822383 -116.941990 282 1354ft 80kts
11-Feb-24 22:30 32.826762 -116.966361 284 412ft 63kts
11-Feb-24 22:31 32.827110 -116.971820 181 371ft 0kts
11-Feb-24 22:32 32.826627 -116.971810 178 371ft 10kts
11-Feb-24 22:33 32.826058 -116.971818 168 372ft 15kts
11-Feb-24 22:34 32.824863 -116.969689 340 378ft 0kts

Navigation Log

Ident Type
Flight plan parsing failed, navigation log unavailable